Time;durP1;ratioP1;P1;durP2;ratioP2;P2;SDS_P1;SDS_P2;PMS_P1;PMS_P2;Temp;Humidity;BMP_temperature;BMP_pressure;BME280_temperature;BME280_humidity;BME280_pressure;Samples;Min_cycle;Max_cycle;Signal;HPM_P1;HPM_P2
2023/01/29 00:01:50;;;;;;;;;;;17.60;47.80;;;;;;5067506;28;20314;-73
2023/01/29 00:04:15;;;;;;;;;;;17.60;47.90;;;;;;5068486;28;19932;-73
2023/01/29 00:06:41;;;;;;;;;;;17.60;48.00;;;;;;5068284;28;19990;-73
2023/01/29 00:09:06;;;;;;;;;;;17.60;47.90;;;;;;5073748;28;20054;-74
2023/01/29 00:11:31;;;;;;;;;;;17.60;48.00;;;;;;5072841;28;19952;-73
2023/01/29 00:13:57;;;;;;;;;;;17.60;47.90;;;;;;5066572;28;19912;-73
2023/01/29 00:16:22;;;;;;;;;;;17.50;47.90;;;;;;5075199;28;19913;-73
2023/01/29 00:18:48;;;;;;;;;;;17.50;48.00;;;;;;5072579;28;20029;-73
2023/01/29 00:21:17;;;;;;;;;;;17.50;48.00;;;;;;5073736;28;20027;-73
2023/01/29 00:23:42;;;;;;;;;;;17.50;48.00;;;;;;5072378;28;19912;-74
2023/01/29 00:26:08;;;;;;;;;;;17.40;48.00;;;;;;5053298;28;19935;-73
2023/01/29 00:28:33;;;;;;;;;;;17.40;48.00;;;;;;5070719;28;19916;-73
2023/01/29 00:31:05;;;;;;;;;;;17.40;48.10;;;;;;5055642;28;19912;-73
2023/01/29 00:33:31;;;;;;;;;;;17.40;48.00;;;;;;5072670;28;19923;-73
2023/01/29 00:35:56;;;;;;;;;;;17.40;48.30;;;;;;5072682;28;19991;-73
2023/01/29 00:38:21;;;;;;;;;;;17.30;48.40;;;;;;5073114;28;19917;-73
2023/01/29 00:46:15;;;;;;;;;;;17.30;48.30;;;;;;5061141;28;19999;-73
2023/01/29 00:48:41;;;;;;;;;;;17.30;48.40;;;;;;5067673;28;19921;-73
2023/01/29 00:51:06;;;;;;;;;;;17.30;48.40;;;;;;5071933;28;19967;-73
2023/01/29 00:53:32;;;;;;;;;;;17.30;48.40;;;;;;5071092;28;19958;-73
2023/01/29 00:55:57;;;;;;;;;;;17.20;48.30;;;;;;5072026;28;19958;-73
2023/01/29 00:58:27;;;;;;;;;;;17.20;48.60;;;;;;5073924;28;19919;-73
2023/01/29 01:00:53;;;;;;;;;;;17.20;48.40;;;;;;5071862;28;19919;-73
2023/01/29 01:03:18;;;;;;;;;;;17.20;48.40;;;;;;5072897;28;19912;-73
2023/01/29 01:05:44;;;;;;;;;;;17.20;48.50;;;;;;5066960;28;19923;-73
2023/01/29 01:11:01;;;;;;;;;;;17.10;48.60;;;;;;5069096;28;20437;-74
2023/01/29 01:13:26;;;;;;;;;;;17.10;48.70;;;;;;5067243;28;20291;-73
2023/01/29 01:15:52;;;;;;;;;;;17.10;49.00;;;;;;5072399;28;19913;-74
2023/01/29 01:18:21;;;;;;;;;;;17.10;48.70;;;;;;5068344;28;19912;-73
2023/01/29 01:20:50;;;;;;;;;;;17.00;48.60;;;;;;5070510;28;19916;-74
2023/01/29 01:23:18;;;;;;;;;;;17.00;48.80;;;;;;5071175;28;20276;-73
2023/01/29 01:25:44;;;;;;;;;;;17.00;49.10;;;;;;5071061;28;19912;-73
2023/01/29 01:28:10;;;;;;;;;;;17.00;49.00;;;;;;5071469;28;19923;-74
2023/01/29 01:30:35;;;;;;;;;;;17.00;48.90;;;;;;5070079;28;19922;-73
2023/01/29 01:33:01;;;;;;;;;;;16.90;49.10;;;;;;5059537;28;20445;-73
2023/01/29 01:35:26;;;;;;;;;;;16.90;49.10;;;;;;5071974;28;20288;-74
2023/01/29 01:37:51;;;;;;;;;;;16.90;49.10;;;;;;5071092;28;19916;-73
2023/01/29 01:40:18;;;;;;;;;;;16.90;49.00;;;;;;5054627;28;19913;-73
2023/01/29 01:42:44;;;;;;;;;;;16.90;49.30;;;;;;5070433;28;20003;-73
2023/01/29 01:45:36;;;;;;;;;;;16.80;49.20;;;;;;5069881;28;20010;-73
2023/01/29 01:48:11;;;;;;;;;;;16.80;49.20;;;;;;5071410;28;20384;-73
2023/01/29 01:50:37;;;;;;;;;;;16.80;49.10;;;;;;5071299;28;19916;-73
2023/01/29 01:53:06;;;;;;;;;;;16.80;49.40;;;;;;5072633;28;19919;-74
2023/01/29 01:55:33;;;;;;;;;;;16.80;49.50;;;;;;5068356;28;20399;-73
2023/01/29 01:58:01;;;;;;;;;;;16.80;49.40;;;;;;5068646;28;19952;-73
2023/01/29 02:00:27;;;;;;;;;;;16.70;49.50;;;;;;5070546;28;19912;-74
2023/01/29 02:11:09;;;;;;;;;;;16.70;49.40;;;;;;5070957;28;20016;-74
2023/01/29 02:13:35;;;;;;;;;;;16.80;49.00;;;;;;5071017;28;20011;-74
2023/01/29 02:16:00;;;;;;;;;;;16.90;48.80;;;;;;5070673;28;19962;-73
2023/01/29 02:18:26;;;;;;;;;;;17.00;48.70;;;;;;5066849;28;19912;-72
2023/01/29 02:21:06;;;;;;;;;;;17.10;48.90;;;;;;5070460;28;19916;-73
2023/01/29 02:23:50;;;;;;;;;;;17.40;48.70;;;;;;5070705;28;19958;-73
2023/01/29 02:26:22;;;;;;;;;;;17.70;48.00;;;;;;5069614;28;20386;-74
2023/01/29 02:28:47;;;;;;;;;;;18.10;47.40;;;;;;5072061;28;19913;-72
2023/01/29 02:31:19;;;;;;;;;;;18.40;46.70;;;;;;5066832;28;19916;-73
2023/01/29 02:33:53;;;;;;;;;;;18.50;46.40;;;;;;5067121;28;19931;-74
2023/01/29 02:36:37;;;;;;;;;;;18.50;46.40;;;;;;5065897;28;19912;-73
2023/01/29 02:39:25;;;;;;;;;;;18.40;46.50;;;;;;5064393;28;19935;-73
2023/01/29 02:41:59;;;;;;;;;;;18.50;46.50;;;;;;5059154;28;20023;-74
2023/01/29 02:44:37;;;;;;;;;;;18.70;46.20;;;;;;5055446;28;19917;-73
2023/01/29 02:47:03;;;;;;;;;;;19.00;45.40;;;;;;5068261;28;20326;-73
2023/01/29 02:49:34;;;;;;;;;;;19.20;45.00;;;;;;5069684;28;20059;-73
2023/01/29 02:52:28;;;;;;;;;;;19.40;44.80;;;;;;5069819;28;20003;-74
2023/01/29 02:54:54;;;;;;;;;;;19.50;44.60;;;;;;5067309;28;19912;-74
2023/01/29 02:57:20;;;;;;;;;;;19.50;44.60;;;;;;5070474;28;20462;-74
2023/01/29 02:59:48;;;;;;;;;;;19.50;44.70;;;;;;5069654;28;19916;-74
2023/01/29 03:02:18;;;;;;;;;;;19.50;44.60;;;;;;5069940;28;19947;-72
2023/01/29 03:04:45;;;;;;;;;;;19.50;44.70;;;;;;5075970;28;19963;-74
2023/01/29 03:07:40;;;;;;;;;;;19.40;44.40;;;;;;5070670;28;20027;-74
2023/01/29 03:10:10;;;;;;;;;;;19.40;44.70;;;;;;5078181;28;20388;-74
2023/01/29 03:12:35;;;;;;;;;;;19.40;44.70;;;;;;5052158;28;19920;-74
2023/01/29 03:15:11;;;;;;;;;;;19.30;44.10;;;;;;5068207;28;19922;-74
2023/01/29 03:17:46;;;;;;;;;;;19.30;44.00;;;;;;5070327;28;19908;-74
2023/01/29 03:20:14;;;;;;;;;;;19.30;44.00;;;;;;5053555;28;20020;-73
2023/01/29 03:22:40;;;;;;;;;;;19.20;44.10;;;;;;5069995;28;19912;-74
2023/01/29 03:33:31;;;;;;;;;;;18.90;44.80;;;;;;5055957;28;20279;-74
2023/01/29 03:36:05;;;;;;;;;;;18.80;45.10;;;;;;5050415;28;20257;-74
2023/01/29 03:38:31;;;;;;;;;;;18.70;45.30;;;;;;5057641;28;20434;-73
2023/01/29 03:41:15;;;;;;;;;;;18.70;45.20;;;;;;5056309;28;19912;-74
2023/01/29 03:43:53;;;;;;;;;;;18.70;45.40;;;;;;5068385;28;19912;-74
2023/01/29 03:46:27;;;;;;;;;;;18.60;45.30;;;;;;5072430;28;19916;-74
2023/01/29 03:48:56;;;;;;;;;;;18.60;45.40;;;;;;5081494;28;19958;-74
2023/01/29 03:51:25;;;;;;;;;;;18.60;45.40;;;;;;5049408;28;19923;-73
2023/01/29 03:53:56;;;;;;;;;;;18.60;45.40;;;;;;5066655;28;19923;-74
2023/01/29 03:56:27;;;;;;;;;;;18.60;45.40;;;;;;5070531;28;19916;-74
2023/01/29 03:58:57;;;;;;;;;;;18.60;45.20;;;;;;5067127;28;20398;-73
2023/01/29 04:01:24;;;;;;;;;;;18.60;45.20;;;;;;5069785;28;19913;-73
2023/01/29 04:03:55;;;;;;;;;;;18.60;45.10;;;;;;5074548;28;19947;-73
2023/01/29 04:06:24;;;;;;;;;;;18.60;45.10;;;;;;5070314;28;19926;-74
2023/01/29 04:08:51;;;;;;;;;;;18.60;45.10;;;;;;5060969;28;19912;-74
2023/01/29 04:11:17;;;;;;;;;;;18.60;45.10;;;;;;5089865;28;19917;-74
2023/01/29 04:13:43;;;;;;;;;;;18.60;45.50;;;;;;5065087;28;19912;-73
2023/01/29 04:16:09;;;;;;;;;;;18.60;45.30;;;;;;5072624;28;19920;-74
2023/01/29 04:18:34;;;;;;;;;;;18.60;45.50;;;;;;5072330;28;19915;-74
2023/01/29 04:21:00;;;;;;;;;;;18.60;45.40;;;;;;5071882;28;20384;-74
2023/01/29 04:23:26;;;;;;;;;;;18.60;45.20;;;;;;5071651;28;20405;-73
2023/01/29 04:26:06;;;;;;;;;;;18.60;45.00;;;;;;5053359;28;20328;-73
2023/01/29 04:28:39;;;;;;;;;;;18.60;45.10;;;;;;5070679;28;20394;-74
2023/01/29 04:31:05;;;;;;;;;;;18.60;45.10;;;;;;5069682;28;19968;-74
2023/01/29 04:33:38;;;;;;;;;;;18.60;45.40;;;;;;5072560;28;19974;-74
2023/01/29 04:36:22;;;;;;;;;;;18.60;45.30;;;;;;5072373;28;19981;-74
2023/01/29 04:39:01;;;;;;;;;;;18.60;45.30;;;;;;5073029;28;19915;-74
2023/01/29 04:41:30;;;;;;;;;;;18.60;45.30;;;;;;5054990;28;19912;-74
2023/01/29 04:44:15;;;;;;;;;;;18.60;45.20;;;;;;5071917;28;19912;-74
2023/01/29 04:46:41;;;;;;;;;;;18.60;45.10;;;;;;5071614;28;19963;-74
2023/01/29 04:49:28;;;;;;;;;;;18.60;45.20;;;;;;5069461;28;19964;-74
2023/01/29 04:51:59;;;;;;;;;;;18.60;45.50;;;;;;5071859;28;19932;-74
2023/01/29 04:54:27;;;;;;;;;;;18.60;45.20;;;;;;5063139;28;19913;-73
2023/01/29 04:57:00;;;;;;;;;;;18.60;45.10;;;;;;5072796;28;19962;-73
2023/01/29 04:59:29;;;;;;;;;;;18.60;45.20;;;;;;5071201;28;19938;-73
2023/01/29 05:01:55;;;;;;;;;;;18.60;45.10;;;;;;5070341;28;19912;-73
2023/01/29 05:04:20;;;;;;;;;;;18.60;45.10;;;;;;5072529;28;19916;-74
2023/01/29 05:06:46;;;;;;;;;;;18.60;45.10;;;;;;5069559;28;19921;-73
2023/01/29 05:09:12;;;;;;;;;;;18.60;45.30;;;;;;5063656;28;19916;-74
2023/01/29 05:11:37;;;;;;;;;;;18.60;45.10;;;;;;5070045;28;19909;-73
2023/01/29 05:14:03;;;;;;;;;;;18.60;45.10;;;;;;5060598;28;19913;-74
2023/01/29 05:16:33;;;;;;;;;;;18.60;45.00;;;;;;5069961;28;19912;-73
2023/01/29 05:18:58;;;;;;;;;;;18.60;45.10;;;;;;5051921;28;19991;-74
2023/01/29 05:21:24;;;;;;;;;;;18.60;45.10;;;;;;5066962;28;20024;-74
2023/01/29 05:24:25;;;;;;;;;;;18.60;45.20;;;;;;5070106;28;19919;-74
2023/01/29 05:29:35;;;;;;;;;;;18.50;45.20;;;;;;5067991;28;19993;-74
2023/01/29 05:32:00;;;;;;;;;;;18.50;45.20;;;;;;5069247;28;20364;-74
2023/01/29 05:34:26;;;;;;;;;;;18.50;46.00;;;;;;5069166;28;20307;-73
2023/01/29 05:36:51;;;;;;;;;;;18.40;45.40;;;;;;5069756;28;20394;-72
2023/01/29 05:39:17;;;;;;;;;;;18.50;45.40;;;;;;5071550;28;19920;-74
2023/01/29 05:41:42;;;;;;;;;;;18.40;45.40;;;;;;5071307;28;19912;-74
2023/01/29 05:44:11;;;;;;;;;;;18.40;45.40;;;;;;5071499;28;19912;-74
2023/01/29 05:46:36;;;;;;;;;;;18.40;45.30;;;;;;5070682;28;19935;-73
2023/01/29 05:49:02;;;;;;;;;;;18.40;46.00;;;;;;5071648;28;19996;-73
2023/01/29 05:51:28;;;;;;;;;;;18.40;45.30;;;;;;5070685;28;19916;-73
2023/01/29 05:53:53;;;;;;;;;;;18.40;45.30;;;;;;5073036;28;19916;-74
2023/01/29 05:56:18;;;;;;;;;;;18.40;45.40;;;;;;5070619;28;19916;-73
2023/01/29 05:58:44;;;;;;;;;;;18.40;45.20;;;;;;5069344;28;19913;-74
2023/01/29 06:01:13;;;;;;;;;;;18.50;45.30;;;;;;5070640;28;19920;-74
2023/01/29 06:03:39;;;;;;;;;;;18.50;45.00;;;;;;5070422;28;19919;-74
2023/01/29 06:06:04;;;;;;;;;;;18.50;45.10;;;;;;5071489;28;20003;-74
2023/01/29 06:08:30;;;;;;;;;;;18.50;45.20;;;;;;5070456;28;20415;-74
2023/01/29 06:10:55;;;;;;;;;;;18.50;45.10;;;;;;5071351;28;19916;-74
2023/01/29 06:13:21;;;;;;;;;;;18.50;45.10;;;;;;5068742;28;20350;-74
2023/01/29 06:15:46;;;;;;;;;;;18.50;45.10;;;;;;5069665;28;20374;-74
2023/01/29 06:18:11;;;;;;;;;;;18.50;45.10;;;;;;5070576;28;19916;-74
2023/01/29 06:20:38;;;;;;;;;;;18.50;45.30;;;;;;5069525;28;19919;-73
2023/01/29 06:23:03;;;;;;;;;;;18.40;45.10;;;;;;5062458;28;20007;-73
2023/01/29 06:25:28;;;;;;;;;;;18.50;45.10;;;;;;5072216;28;19988;-74
2023/01/29 06:27:54;;;;;;;;;;;18.50;45.30;;;;;;5068415;28;19962;-73
2023/01/29 06:30:19;;;;;;;;;;;18.50;45.10;;;;;;5070131;28;20349;-74
2023/01/29 06:32:45;;;;;;;;;;;18.50;45.00;;;;;;5069877;28;19916;-74
2023/01/29 06:35:10;;;;;;;;;;;18.50;44.80;;;;;;5069632;28;20007;-73
2023/01/29 06:37:36;;;;;;;;;;;18.50;45.00;;;;;;5070708;28;20368;-74
2023/01/29 06:40:01;;;;;;;;;;;18.50;44.80;;;;;;5068975;28;19923;-74
2023/01/29 06:42:27;;;;;;;;;;;18.60;45.10;;;;;;5070360;28;19912;-73
2023/01/29 06:44:53;;;;;;;;;;;18.50;45.20;;;;;;5071216;28;19969;-74
2023/01/29 06:47:18;;;;;;;;;;;18.50;45.00;;;;;;5070752;28;19917;-73
2023/01/29 06:49:44;;;;;;;;;;;18.50;45.00;;;;;;5069209;28;19920;-73
2023/01/29 06:52:09;;;;;;;;;;;18.50;45.00;;;;;;5068514;28;19963;-73
2023/01/29 06:54:35;;;;;;;;;;;18.60;45.00;;;;;;5071811;28;19921;-74
2023/01/29 06:57:00;;;;;;;;;;;18.60;44.80;;;;;;5069178;28;19962;-74
2023/01/29 06:59:26;;;;;;;;;;;18.50;44.80;;;;;;5070380;28;20126;-74
2023/01/29 07:01:51;;;;;;;;;;;18.50;44.90;;;;;;5070338;28;19913;-74
2023/01/29 07:04:16;;;;;;;;;;;18.50;45.00;;;;;;5070876;28;19913;-73
2023/01/29 07:06:42;;;;;;;;;;;18.50;44.90;;;;;;5064727;28;19925;-73
2023/01/29 07:09:07;;;;;;;;;;;18.50;44.80;;;;;;5072428;28;19919;-73
2023/01/29 07:11:33;;;;;;;;;;;18.50;45.00;;;;;;5070820;28;20356;-73
2023/01/29 07:13:58;;;;;;;;;;;18.40;45.00;;;;;;5051409;28;20365;-74
2023/01/29 07:16:25;;;;;;;;;;;18.50;45.00;;;;;;5067779;28;19912;-73
2023/01/29 07:18:50;;;;;;;;;;;18.50;45.00;;;;;;5071851;28;19916;-73
2023/01/29 07:21:16;;;;;;;;;;;18.50;45.00;;;;;;5071932;28;19917;-73
2023/01/29 07:23:41;;;;;;;;;;;18.50;45.00;;;;;;5074467;28;19943;-73
2023/01/29 07:26:07;;;;;;;;;;;18.40;45.00;;;;;;5072680;28;19921;-73
2023/01/29 07:28:38;;;;;;;;;;;18.50;44.80;;;;;;5073643;28;19927;-73
2023/01/29 07:31:04;;;;;;;;;;;18.50;44.90;;;;;;5073487;28;19918;-73
2023/01/29 07:33:29;;;;;;;;;;;18.40;44.90;;;;;;5075107;28;19920;-74
2023/01/29 07:35:55;;;;;;;;;;;18.50;44.80;;;;;;5070498;28;19964;-74
2023/01/29 07:38:20;;;;;;;;;;;18.50;45.00;;;;;;5072552;28;19920;-74
2023/01/29 07:40:46;;;;;;;;;;;18.50;45.00;;;;;;5074391;28;19913;-73
2023/01/29 07:43:11;;;;;;;;;;;18.40;45.00;;;;;;5074550;28;20272;-73
2023/01/29 07:45:37;;;;;;;;;;;18.50;44.90;;;;;;5074157;28;19912;-73
2023/01/29 07:48:05;;;;;;;;;;;18.50;44.80;;;;;;5069342;28;19946;-74
2023/01/29 07:50:31;;;;;;;;;;;18.50;44.90;;;;;;5072409;28;20338;-73
2023/01/29 07:52:56;;;;;;;;;;;18.50;44.80;;;;;;5070996;28;19912;-74
2023/01/29 07:55:22;;;;;;;;;;;18.40;44.90;;;;;;5072817;28;19920;-74
2023/01/29 07:57:53;;;;;;;;;;;18.50;44.80;;;;;;5070527;28;19913;-74
2023/01/29 08:00:19;;;;;;;;;;;18.40;45.00;;;;;;5052777;28;19912;-73
2023/01/29 08:02:44;;;;;;;;;;;18.40;44.90;;;;;;5070580;28;19920;-73
2023/01/29 08:05:10;;;;;;;;;;;18.40;45.00;;;;;;5068599;28;19976;-73
2023/01/29 08:07:35;;;;;;;;;;;18.40;45.00;;;;;;5072033;28;20380;-73
2023/01/29 08:10:00;;;;;;;;;;;18.40;44.90;;;;;;5072887;28;20499;-73
2023/01/29 08:12:26;;;;;;;;;;;18.40;45.00;;;;;;5069474;28;20073;-73
2023/01/29 08:14:51;;;;;;;;;;;18.40;45.00;;;;;;5071704;28;19974;-73
2023/01/29 08:17:17;;;;;;;;;;;18.40;45.00;;;;;;5073733;28;19920;-73
2023/01/29 08:19:42;;;;;;;;;;;18.40;45.00;;;;;;5074192;28;19922;-73
2023/01/29 08:22:08;;;;;;;;;;;18.40;45.10;;;;;;5072537;28;19995;-74
2023/01/29 08:24:33;;;;;;;;;;;18.40;44.80;;;;;;5075290;28;19908;-74
2023/01/29 08:26:58;;;;;;;;;;;18.40;44.80;;;;;;5067630;28;19916;-74
2023/01/29 08:29:24;;;;;;;;;;;18.40;44.70;;;;;;5074001;28;20427;-73
2023/01/29 08:31:49;;;;;;;;;;;18.40;44.70;;;;;;5069405;28;19936;-73
2023/01/29 08:34:15;;;;;;;;;;;18.40;44.80;;;;;;5071447;28;19979;-73
2023/01/29 08:36:40;;;;;;;;;;;18.30;45.00;;;;;;5052702;28;19917;-74
2023/01/29 08:39:06;;;;;;;;;;;18.30;45.00;;;;;;5071475;28;19912;-73
2023/01/29 08:41:31;;;;;;;;;;;18.20;45.20;;;;;;5074046;28;20398;-73
2023/01/29 08:43:57;;;;;;;;;;;18.20;45.30;;;;;;5074436;28;19912;-73
2023/01/29 08:46:22;;;;;;;;;;;18.10;45.30;;;;;;5070791;28;19920;-73
2023/01/29 08:48:48;;;;;;;;;;;18.10;45.40;;;;;;5073175;28;20387;-73
2023/01/29 08:51:13;;;;;;;;;;;18.10;45.40;;;;;;5070468;28;20065;-73
2023/01/29 08:53:38;;;;;;;;;;;18.10;45.40;;;;;;5067484;28;20402;-73
2023/01/29 08:56:04;;;;;;;;;;;18.00;45.90;;;;;;5070843;28;20386;-73
2023/01/29 08:58:30;;;;;;;;;;;18.00;45.60;;;;;;5053726;28;20327;-73
2023/01/29 09:00:55;;;;;;;;;;;18.00;45.90;;;;;;5069361;28;20391;-73
2023/01/29 09:03:20;;;;;;;;;;;18.00;45.90;;;;;;5072673;28;19916;-73
2023/01/29 09:05:46;;;;;;;;;;;17.90;46.20;;;;;;5072114;28;19921;-73
2023/01/29 09:08:11;;;;;;;;;;;17.90;45.60;;;;;;5067620;28;19941;-73
2023/01/29 09:10:37;;;;;;;;;;;17.90;46.10;;;;;;5072263;28;19913;-74
2023/01/29 09:13:02;;;;;;;;;;;17.90;45.80;;;;;;5065245;28;20004;-73
2023/01/29 09:15:28;;;;;;;;;;;17.90;45.90;;;;;;5069783;28;19956;-74
2023/01/29 09:17:53;;;;;;;;;;;17.90;45.70;;;;;;5066661;28;19958;-73
2023/01/29 09:20:19;;;;;;;;;;;17.90;45.80;;;;;;5061239;28;19923;-74
2023/01/29 09:22:45;;;;;;;;;;;17.90;45.60;;;;;;5069735;28;20351;-74
2023/01/29 09:25:10;;;;;;;;;;;17.90;45.80;;;;;;5069176;28;19987;-74
2023/01/29 09:27:36;;;;;;;;;;;17.90;45.70;;;;;;5072304;28;19940;-74
2023/01/29 09:30:02;;;;;;;;;;;17.90;46.10;;;;;;5070632;28;19928;-74
2023/01/29 09:32:29;;;;;;;;;;;18.00;46.10;;;;;;5072694;28;19995;-74
2023/01/29 09:34:55;;;;;;;;;;;18.10;46.30;;;;;;5072916;28;19916;-74
2023/01/29 09:37:22;;;;;;;;;;;18.20;45.50;;;;;;5073937;28;19912;-74
2023/01/29 09:39:47;;;;;;;;;;;18.30;46.00;;;;;;5072222;28;20257;-75
2023/01/29 09:42:24;;;;;;;;;;;18.40;45.90;;;;;;5071844;28;19912;-74
2023/01/29 09:44:56;;;;;;;;;;;18.50;45.90;;;;;;5069801;28;20319;-74
2023/01/29 09:47:22;;;;;;;;;;;18.50;46.00;;;;;;5073721;28;20387;-74
2023/01/29 09:49:58;;;;;;;;;;;18.60;45.80;;;;;;5070955;28;20349;-74
2023/01/29 09:52:25;;;;;;;;;;;18.70;45.60;;;;;;5069753;28;19951;-74
2023/01/29 09:54:56;;;;;;;;;;;18.70;45.50;;;;;;5050663;28;19917;-74
2023/01/29 09:57:26;;;;;;;;;;;18.70;45.60;;;;;;5059506;28;22017;-74
2023/01/29 09:59:52;;;;;;;;;;;18.70;45.70;;;;;;5066109;28;19919;-74
2023/01/29 10:02:36;;;;;;;;;;;18.70;45.40;;;;;;5069030;28;19913;-74
2023/01/29 10:05:05;;;;;;;;;;;18.80;45.20;;;;;;5064954;28;19916;-73
2023/01/29 10:07:30;;;;;;;;;;;18.80;45.40;;;;;;5067213;28;20419;-73
2023/01/29 10:10:06;;;;;;;;;;;18.90;45.60;;;;;;5066836;28;19968;-73
2023/01/29 10:12:50;;;;;;;;;;;19.20;44.70;;;;;;5068818;28;19912;-74
2023/01/29 10:15:31;;;;;;;;;;;20.00;42.90;;;;;;5065551;28;20009;-74
2023/01/29 10:17:56;;;;;;;;;;;20.80;41.30;;;;;;5063229;28;19912;-74
2023/01/29 10:20:28;;;;;;;;;;;21.40;40.60;;;;;;5067090;28;20356;-74
2023/01/29 10:22:59;;;;;;;;;;;21.70;40.20;;;;;;5071305;28;19920;-74
2023/01/29 10:25:25;;;;;;;;;;;22.00;39.70;;;;;;5063316;28;20292;-75
2023/01/29 10:27:51;;;;;;;;;;;22.20;39.50;;;;;;5061138;28;19921;-74
2023/01/29 10:30:20;;;;;;;;;;;22.30;39.30;;;;;;5060790;28;20283;-74
2023/01/29 10:32:45;;;;;;;;;;;22.40;39.30;;;;;;5071766;28;20282;-74
2023/01/29 10:35:17;;;;;;;;;;;22.40;39.10;;;;;;5045804;28;19912;-74
2023/01/29 10:37:42;;;;;;;;;;;22.50;39.20;;;;;;5064493;28;20004;-74
2023/01/29 10:40:11;;;;;;;;;;;22.60;39.10;;;;;;5058552;28;19995;-75
2023/01/29 10:42:39;;;;;;;;;;;22.60;39.10;;;;;;5070117;28;19980;-74
2023/01/29 10:45:07;;;;;;;;;;;22.70;39.20;;;;;;5069585;28;19912;-73
2023/01/29 10:47:43;;;;;;;;;;;22.80;39.10;;;;;;5072283;28;19920;-73
2023/01/29 10:50:15;;;;;;;;;;;22.80;39.00;;;;;;5063755;28;19930;-74
2023/01/29 10:52:49;;;;;;;;;;;22.90;39.20;;;;;;5058784;28;19916;-73
2023/01/29 10:55:21;;;;;;;;;;;22.90;39.30;;;;;;5069732;28;19913;-74
2023/01/29 10:57:46;;;;;;;;;;;22.90;39.30;;;;;;5070031;28;19917;-74
2023/01/29 11:00:14;;;;;;;;;;;22.70;39.50;;;;;;5070602;28;20364;-73
2023/01/29 11:02:44;;;;;;;;;;;22.60;40.00;;;;;;5063415;28;19919;-73
2023/01/29 11:05:18;;;;;;;;;;;22.50;40.50;;;;;;5070081;28;20360;-74
2023/01/29 11:07:44;;;;;;;;;;;22.30;40.70;;;;;;5069015;28;20296;-74
2023/01/29 11:10:10;;;;;;;;;;;22.20;40.90;;;;;;5039220;28;19926;-74
2023/01/29 11:12:37;;;;;;;;;;;22.00;41.00;;;;;;5063414;28;19916;-73
2023/01/29 11:15:06;;;;;;;;;;;21.90;41.00;;;;;;5060362;28;20035;-73
2023/01/29 11:17:31;;;;;;;;;;;21.90;41.10;;;;;;5069936;28;20776;-74
2023/01/29 11:19:57;;;;;;;;;;;21.80;41.00;;;;;;5067515;28;19958;-74
2023/01/29 11:22:23;;;;;;;;;;;21.80;41.20;;;;;;5071081;28;20463;-74
2023/01/29 11:25:06;;;;;;;;;;;21.80;41.10;;;;;;5045126;28;19912;-73
2023/01/29 11:27:34;;;;;;;;;;;21.70;41.10;;;;;;5070723;28;21468;-74
2023/01/29 11:29:59;;;;;;;;;;;21.80;41.20;;;;;;5068784;28;20347;-74
2023/01/29 11:32:25;;;;;;;;;;;21.80;41.00;;;;;;5066669;28;19916;-74
2023/01/29 11:34:57;;;;;;;;;;;21.80;41.00;;;;;;5061357;28;19920;-74
2023/01/29 11:37:22;;;;;;;;;;;21.90;41.00;;;;;;5063314;28;19916;-74
2023/01/29 11:39:49;;;;;;;;;;;21.90;40.80;;;;;;5068625;28;19913;-74
2023/01/29 11:42:18;;;;;;;;;;;21.90;40.90;;;;;;5071275;28;19908;-73
2023/01/29 11:44:43;;;;;;;;;;;21.90;40.60;;;;;;5050147;28;19956;-74
2023/01/29 11:47:17;;;;;;;;;;;21.90;40.90;;;;;;5068045;28;19956;-74
2023/01/29 11:49:50;;;;;;;;;;;21.80;40.90;;;;;;5064044;28;19920;-73
2023/01/29 11:52:16;;;;;;;;;;;21.80;40.90;;;;;;5049555;28;20704;-74
2023/01/29 11:54:51;;;;;;;;;;;21.80;40.90;;;;;;5046207;28;20390;-73
2023/01/29 11:57:24;;;;;;;;;;;21.80;41.10;;;;;;5066861;28;20354;-73
2023/01/29 11:59:49;;;;;;;;;;;21.80;41.00;;;;;;5044957;28;19912;-74
2023/01/29 12:02:32;;;;;;;;;;;21.70;41.20;;;;;;5051664;28;20112;-74
2023/01/29 12:04:59;;;;;;;;;;;21.70;41.30;;;;;;5063747;28;20280;-73
2023/01/29 12:07:24;;;;;;;;;;;21.80;41.30;;;;;;5074220;28;19925;-74
2023/01/29 12:09:53;;;;;;;;;;;21.80;41.30;;;;;;5069698;28;19938;-74
2023/01/29 12:12:27;;;;;;;;;;;21.80;41.10;;;;;;5051354;28;20314;-73
2023/01/29 12:15:03;;;;;;;;;;;21.80;41.40;;;;;;5070982;28;19924;-73
2023/01/29 12:17:28;;;;;;;;;;;21.80;41.00;;;;;;5066445;28;20403;-74
2023/01/29 12:19:55;;;;;;;;;;;21.90;40.90;;;;;;5072522;28;20245;-73
2023/01/29 12:22:33;;;;;;;;;;;22.10;40.70;;;;;;5073062;28;19916;-73
2023/01/29 12:25:01;;;;;;;;;;;22.00;40.80;;;;;;5070732;28;19912;-75
2023/01/29 12:27:28;;;;;;;;;;;22.10;40.80;;;;;;5062178;28;19931;-75
2023/01/29 12:29:54;;;;;;;;;;;22.10;40.80;;;;;;5070364;28;19962;-75
2023/01/29 12:32:38;;;;;;;;;;;22.00;40.90;;;;;;5067749;28;19920;-72
2023/01/29 12:35:05;;;;;;;;;;;22.00;40.60;;;;;;5069236;28;19995;-74
2023/01/29 12:37:42;;;;;;;;;;;22.10;40.60;;;;;;5071747;28;19916;-74
2023/01/29 12:40:14;;;;;;;;;;;22.00;40.60;;;;;;5070359;28;19928;-72
2023/01/29 12:42:40;;;;;;;;;;;22.10;40.70;;;;;;5063156;28;19912;-74
2023/01/29 12:45:07;;;;;;;;;;;22.10;40.70;;;;;;5068009;28;20283;-73
2023/01/29 12:47:37;;;;;;;;;;;22.10;40.70;;;;;;5069326;28;20376;-74
2023/01/29 12:50:04;;;;;;;;;;;22.00;40.70;;;;;;5070575;28;20396;-73
2023/01/29 12:52:35;;;;;;;;;;;22.00;40.80;;;;;;5073231;28;19917;-73
2023/01/29 12:55:02;;;;;;;;;;;21.90;40.90;;;;;;5049698;28;20399;-74
2023/01/29 12:57:27;;;;;;;;;;;21.90;40.90;;;;;;5061786;28;19968;-74
2023/01/29 13:00:13;;;;;;;;;;;21.90;41.00;;;;;;5066303;28;19916;-73
2023/01/29 13:02:41;;;;;;;;;;;21.90;40.80;;;;;;5068657;28;19919;-74
2023/01/29 13:05:19;;;;;;;;;;;21.80;41.10;;;;;;5074796;28;20018;-74
2023/01/29 13:07:46;;;;;;;;;;;21.80;41.20;;;;;;5070073;28;19924;-74
2023/01/29 13:10:13;;;;;;;;;;;21.80;41.00;;;;;;5070853;28;20415;-72
2023/01/29 13:12:39;;;;;;;;;;;21.80;41.00;;;;;;5066946;28;20000;-73
2023/01/29 13:15:24;;;;;;;;;;;21.90;41.20;;;;;;5062906;28;19944;-74
2023/01/29 13:17:54;;;;;;;;;;;22.10;40.70;;;;;;5063762;28;19958;-73
2023/01/29 13:20:26;;;;;;;;;;;22.20;40.60;;;;;;5061139;28;20044;-73
2023/01/29 13:22:53;;;;;;;;;;;22.10;40.50;;;;;;5055569;28;19920;-73
2023/01/29 13:25:18;;;;;;;;;;;22.20;40.50;;;;;;5065176;28;20392;-74
2023/01/29 13:27:47;;;;;;;;;;;22.30;40.40;;;;;;5062039;28;19964;-74
2023/01/29 13:30:29;;;;;;;;;;;22.30;40.30;;;;;;5066167;28;19913;-75
2023/01/29 13:32:54;;;;;;;;;;;22.30;40.10;;;;;;5059013;28;19925;-74
2023/01/29 13:35:20;;;;;;;;;;;22.40;40.20;;;;;;5069342;28;20254;-74
2023/01/29 13:37:52;;;;;;;;;;;22.40;40.10;;;;;;5058904;28;19959;-74
2023/01/29 13:40:19;;;;;;;;;;;22.40;40.00;;;;;;5070309;28;19970;-74
2023/01/29 13:42:45;;;;;;;;;;;22.40;40.00;;;;;;5062515;28;19956;-74
2023/01/29 13:45:21;;;;;;;;;;;22.40;40.10;;;;;;5068906;28;19920;-74
2023/01/29 13:47:46;;;;;;;;;;;22.40;40.20;;;;;;5070878;28;19924;-74
2023/01/29 13:50:17;;;;;;;;;;;22.40;40.40;;;;;;5064304;28;20643;-73
2023/01/29 13:52:43;;;;;;;;;;;22.40;40.20;;;;;;5082814;28;19920;-74
2023/01/29 13:55:12;;;;;;;;;;;22.40;40.10;;;;;;5062296;28;19923;-74
2023/01/29 13:57:43;;;;;;;;;;;22.50;40.00;;;;;;5070214;28;19912;-74
2023/01/29 14:00:21;;;;;;;;;;;22.40;40.10;;;;;;5068075;28;19948;-74
2023/01/29 14:02:46;;;;;;;;;;;22.40;40.30;;;;;;5062078;28;19923;-74
2023/01/29 14:05:30;;;;;;;;;;;22.50;40.30;;;;;;5070148;28;20348;-73
2023/01/29 14:08:02;;;;;;;;;;;22.50;40.30;;;;;;5054447;28;20011;-74
2023/01/29 14:10:28;;;;;;;;;;;22.60;40.10;;;;;;5064684;28;19912;-74
2023/01/29 14:12:54;;;;;;;;;;;22.50;40.20;;;;;;5062225;28;20391;-74
2023/01/29 14:15:20;;;;;;;;;;;22.40;40.20;;;;;;5063927;28;20001;-74
2023/01/29 14:18:02;;;;;;;;;;;22.50;40.20;;;;;;5064679;28;20015;-74
2023/01/29 14:20:48;;;;;;;;;;;22.50;40.40;;;;;;5060619;28;19919;-74
2023/01/29 14:23:40;;;;;;;;;;;22.50;40.20;;;;;;5065215;28;19917;-74
2023/01/29 14:26:16;;;;;;;;;;;22.50;40.20;;;;;;5057701;28;19928;-74
2023/01/29 14:28:42;;;;;;;;;;;22.40;40.20;;;;;;5043575;28;19969;-74
2023/01/29 14:31:07;;;;;;;;;;;22.40;40.40;;;;;;5062593;28;19917;-74
2023/01/29 14:33:37;;;;;;;;;;;22.50;40.20;;;;;;5067470;28;19944;-74
2023/01/29 14:36:03;;;;;;;;;;;22.40;40.30;;;;;;5063780;28;19923;-74
2023/01/29 14:38:28;;;;;;;;;;;22.40;40.30;;;;;;5070268;28;20404;-74
2023/01/29 14:41:01;;;;;;;;;;;22.50;40.20;;;;;;5066268;28;19952;-73
2023/01/29 14:43:26;;;;;;;;;;;22.50;40.00;;;;;;5069576;28;19916;-74
2023/01/29 14:45:52;;;;;;;;;;;22.50;40.10;;;;;;5067305;28;19973;-74
2023/01/29 14:48:36;;;;;;;;;;;22.50;39.90;;;;;;5067789;28;20035;-74
2023/01/29 14:51:05;;;;;;;;;;;22.60;39.70;;;;;;5064407;28;19970;-73
2023/01/29 14:53:42;;;;;;;;;;;22.60;39.70;;;;;;5066615;28;19916;-74